createdAt,value
2023-07-03T00:00:32.814Z,742.00
2023-07-03T00:01:32.913Z,744.00
2023-07-03T00:02:33.005Z,734.00
2023-07-03T00:03:33.022Z,724.00
2023-07-03T00:04:33.103Z,749.00
2023-07-03T00:05:33.267Z,743.00
2023-07-03T00:06:33.227Z,741.00
2023-07-03T00:07:33.286Z,730.00
2023-07-03T00:08:33.338Z,731.00
2023-07-03T00:09:33.386Z,748.00
2023-07-03T00:10:33.460Z,762.00
2023-07-03T00:11:33.508Z,743.00
2023-07-03T00:12:33.535Z,741.00
2023-07-03T00:13:33.678Z,734.00
2023-07-03T00:14:33.685Z,736.00
2023-07-03T00:15:33.884Z,732.00
2023-07-03T00:16:33.819Z,721.00
2023-07-03T00:17:33.909Z,730.00
2023-07-03T00:18:33.922Z,729.00
2023-07-03T00:19:33.977Z,741.00
2023-07-03T00:20:34.031Z,751.00
2023-07-03T00:21:34.080Z,741.00
2023-07-03T00:22:34.161Z,742.00
2023-07-03T00:23:34.253Z,734.00
2023-07-03T00:24:34.270Z,751.00
2023-07-03T00:25:34.330Z,735.00
2023-07-03T00:26:34.376Z,741.00
2023-07-03T00:27:34.383Z,752.00
2023-07-03T00:28:34.466Z,753.00
2023-07-03T00:29:34.500Z,748.00
2023-07-03T00:30:34.567Z,763.00
2023-07-03T00:31:34.597Z,748.00
2023-07-03T00:32:34.643Z,739.00
2023-07-03T00:33:34.638Z,751.00
2023-07-03T00:34:34.690Z,753.00
2023-07-03T00:35:34.726Z,758.00
2023-07-03T00:36:34.771Z,750.00
2023-07-03T00:37:34.800Z,759.00
2023-07-03T00:38:34.830Z,754.00
2023-07-03T00:39:34.878Z,738.00
2023-07-03T00:40:34.879Z,750.00
2023-07-03T00:41:34.935Z,752.00
2023-07-03T00:42:34.931Z,741.00
2023-07-03T00:43:35.006Z,744.00
2023-07-03T00:44:35.006Z,749.00
2023-07-03T00:45:35.075Z,746.00
2023-07-03T00:46:35.161Z,753.00
2023-07-03T00:47:35.181Z,737.00
2023-07-03T00:48:35.197Z,753.00
2023-07-03T00:49:35.188Z,753.00
2023-07-03T00:50:35.258Z,740.00
2023-07-03T00:51:35.320Z,767.00
2023-07-03T00:52:35.322Z,748.00
2023-07-03T00:53:35.382Z,764.00
2023-07-03T00:54:35.433Z,755.00
2023-07-03T00:55:35.451Z,757.00
2023-07-03T00:56:35.568Z,754.00
2023-07-03T00:57:35.617Z,757.00
2023-07-03T00:58:35.618Z,747.00
2023-07-03T00:59:35.670Z,765.00
2023-07-03T01:00:35.734Z,760.00
2023-07-03T01:01:35.811Z,752.00
2023-07-03T01:02:35.789Z,758.00
2023-07-03T01:03:35.781Z,754.00
2023-07-03T01:04:36.012Z,761.00
2023-07-03T01:05:36.039Z,765.00
2023-07-03T01:06:35.930Z,766.00
2023-07-03T01:07:35.996Z,761.00
2023-07-03T01:08:35.996Z,756.00
2023-07-03T01:09:36.024Z,763.00
2023-07-03T01:10:36.059Z,774.00
2023-07-03T01:11:36.069Z,765.00
2023-07-03T01:12:36.086Z,761.00
2023-07-03T01:13:36.147Z,766.00
2023-07-03T01:14:36.208Z,747.00
2023-07-03T01:15:36.191Z,765.00
2023-07-03T01:16:36.284Z,779.00
2023-07-03T01:17:36.258Z,768.00
2023-07-03T01:18:36.220Z,759.00
2023-07-03T01:19:36.281Z,765.00
2023-07-03T01:20:36.234Z,769.00
2023-07-03T01:21:36.300Z,759.00
2023-07-03T01:22:36.300Z,767.00
2023-07-03T01:23:36.298Z,776.00
2023-07-03T01:24:36.311Z,754.00
2023-07-03T01:25:36.338Z,773.00
2023-07-03T01:26:36.325Z,785.00
2023-07-03T01:27:36.382Z,778.00
2023-07-03T01:28:36.341Z,779.00
2023-07-03T01:29:36.317Z,772.00
2023-07-03T01:30:36.368Z,762.00
2023-07-03T01:31:36.451Z,782.00
2023-07-03T01:32:36.404Z,770.00
2023-07-03T01:33:36.382Z,774.00
2023-07-03T01:34:36.380Z,784.00
2023-07-03T01:35:36.387Z,780.00
2023-07-03T01:36:36.396Z,766.00
2023-07-03T01:37:36.410Z,771.00
2023-07-03T01:38:36.412Z,778.00
2023-07-03T01:39:36.426Z,771.00
2023-07-03T01:40:36.426Z,786.00
2023-07-03T01:41:36.471Z,782.00
2023-07-03T01:42:36.484Z,780.00
2023-07-03T01:43:36.484Z,765.00
2023-07-03T01:44:36.490Z,776.00
2023-07-03T01:45:36.558Z,774.00
2023-07-03T01:46:36.689Z,782.00
2023-07-03T01:47:36.626Z,788.00
2023-07-03T01:48:36.574Z,761.00
2023-07-03T01:49:36.628Z,777.00
2023-07-03T01:50:36.660Z,785.00
2023-07-03T01:51:36.664Z,770.00
2023-07-03T01:52:36.827Z,787.00
2023-07-03T01:53:36.774Z,768.00
2023-07-03T01:54:36.796Z,780.00
2023-07-03T01:55:36.752Z,781.00
2023-07-03T01:56:36.839Z,781.00
2023-07-03T01:57:36.850Z,785.00
2023-07-03T01:58:36.861Z,774.00
2023-07-03T01:59:36.858Z,781.00
2023-07-03T02:00:36.926Z,775.00
2023-07-03T02:01:36.961Z,784.00
2023-07-03T02:02:37.069Z,775.00
2023-07-03T02:03:37.072Z,774.00
2023-07-03T02:04:37.059Z,769.00
2023-07-03T02:05:37.066Z,797.00
2023-07-03T02:06:37.070Z,778.00
2023-07-03T02:07:37.128Z,786.00
2023-07-03T02:08:37.128Z,787.00
2023-07-03T02:09:37.084Z,795.00
2023-07-03T02:10:37.255Z,789.00
2023-07-03T02:11:37.149Z,772.00
2023-07-03T02:12:37.158Z,780.00
2023-07-03T02:13:37.169Z,784.00
2023-07-03T02:14:37.162Z,783.00
2023-07-03T02:15:37.170Z,790.00
2023-07-03T02:16:37.201Z,787.00
2023-07-03T02:17:37.230Z,769.00
2023-07-03T02:18:37.198Z,768.00
2023-07-03T02:19:37.187Z,780.00
2023-07-03T02:20:37.212Z,785.00
2023-07-03T02:21:37.180Z,779.00
2023-07-03T02:22:39.371Z,788.00
2023-07-03T02:23:37.176Z,804.00
2023-07-03T02:24:37.205Z,800.00
2023-07-03T02:25:37.135Z,781.00
2023-07-03T02:26:37.147Z,796.00
2023-07-03T02:27:37.160Z,790.00
2023-07-03T02:28:37.208Z,777.00
2023-07-03T02:29:37.194Z,790.00
2023-07-03T02:30:37.153Z,783.00
2023-07-03T02:31:37.141Z,789.00
2023-07-03T02:32:37.826Z,789.00
2023-07-03T02:33:37.095Z,797.00
2023-07-03T02:34:37.098Z,791.00
2023-07-03T02:35:37.053Z,790.00
2023-07-03T02:36:37.113Z,791.00
2023-07-03T02:37:37.111Z,781.00
2023-07-03T02:38:37.085Z,798.00
2023-07-03T02:39:37.054Z,797.00
2023-07-03T02:40:37.107Z,799.00
2023-07-03T02:41:37.049Z,795.00
2023-07-03T02:42:37.056Z,793.00
2023-07-03T02:43:37.022Z,793.00
2023-07-03T02:44:37.070Z,784.00
2023-07-03T02:45:37.046Z,782.00
2023-07-03T02:46:37.091Z,783.00
2023-07-03T02:47:37.180Z,766.00
2023-07-03T02:48:36.987Z,791.00
2023-07-03T02:49:37.028Z,790.00
2023-07-03T02:50:37.014Z,790.00
2023-07-03T02:51:36.966Z,776.00
2023-07-03T02:52:37.021Z,797.00
2023-07-03T02:53:36.976Z,786.00
2023-07-03T02:54:36.947Z,782.00
2023-07-03T02:55:36.921Z,783.00
2023-07-03T02:56:36.936Z,795.00
2023-07-03T02:57:36.918Z,795.00
2023-07-03T02:58:36.904Z,788.00
2023-07-03T02:59:36.896Z,781.00
2023-07-03T03:00:36.951Z,807.00
2023-07-03T03:01:36.907Z,784.00
2023-07-03T03:02:36.990Z,794.00
2023-07-03T03:03:36.973Z,792.00
2023-07-03T03:04:36.983Z,801.00
2023-07-03T03:05:36.899Z,792.00
2023-07-03T03:06:36.972Z,794.00
2023-07-03T03:07:36.851Z,792.00
2023-07-03T03:08:36.863Z,783.00
2023-07-03T03:09:36.840Z,785.00
2023-07-03T03:10:36.856Z,794.00
2023-07-03T03:11:36.790Z,793.00
2023-07-03T03:12:36.788Z,778.00
2023-07-03T03:13:36.852Z,783.00
2023-07-03T03:14:36.816Z,777.00
2023-07-03T03:15:36.812Z,795.00
2023-07-03T03:16:36.856Z,788.00
2023-07-03T03:17:37.360Z,787.00
2023-07-03T03:18:36.779Z,796.00
2023-07-03T03:19:36.774Z,794.00
2023-07-03T03:20:36.754Z,793.00
2023-07-03T03:21:36.757Z,798.00
2023-07-03T03:22:36.797Z,804.00
2023-07-03T03:23:36.736Z,790.00
2023-07-03T03:24:36.740Z,796.00
2023-07-03T03:25:36.729Z,789.00
2023-07-03T03:26:36.725Z,797.00
2023-07-03T03:27:36.695Z,795.00
2023-07-03T03:28:36.714Z,787.00
2023-07-03T03:29:36.725Z,795.00
2023-07-03T03:30:36.719Z,782.00
2023-07-03T03:31:36.721Z,784.00
2023-07-03T03:32:36.707Z,792.00
2023-07-03T03:33:36.662Z,795.00
2023-07-03T03:34:36.661Z,801.00
2023-07-03T03:35:36.690Z,797.00
2023-07-03T03:36:36.671Z,796.00
2023-07-03T03:37:36.659Z,799.00
2023-07-03T03:38:36.612Z,782.00
2023-07-03T03:39:36.617Z,793.00
2023-07-03T03:40:36.734Z,809.00
2023-07-03T03:41:36.647Z,804.00
2023-07-03T03:42:36.632Z,797.00
2023-07-03T03:43:36.588Z,805.00
2023-07-03T03:44:36.609Z,800.00
2023-07-03T03:45:36.594Z,799.00
2023-07-03T03:46:36.652Z,792.00
2023-07-03T03:47:36.632Z,806.00
2023-07-03T03:48:36.799Z,801.00
2023-07-03T03:49:36.569Z,793.00
2023-07-03T03:50:36.520Z,803.00
2023-07-03T03:51:36.545Z,796.00
2023-07-03T03:52:36.530Z,801.00
2023-07-03T03:53:36.536Z,805.00
2023-07-03T03:54:36.509Z,799.00
2023-07-03T03:55:36.511Z,802.00
2023-07-03T03:56:36.492Z,798.00
2023-07-03T03:57:36.541Z,803.00
2023-07-03T03:58:36.529Z,804.00
2023-07-03T03:59:36.497Z,801.00
2023-07-03T04:00:36.480Z,801.00
2023-07-03T04:01:36.525Z,788.00
2023-07-03T04:02:36.548Z,798.00
2023-07-03T04:03:36.471Z,761.00
2023-07-03T04:04:36.574Z,753.00
2023-07-03T04:05:36.429Z,725.00
2023-07-03T04:06:36.429Z,705.00
2023-07-03T04:07:36.414Z,667.00
2023-07-03T04:08:36.406Z,662.00
2023-07-03T04:09:36.418Z,654.00
2023-07-03T04:10:36.427Z,640.00
2023-07-03T04:11:36.410Z,631.00
2023-07-03T04:12:36.437Z,624.00
2023-07-03T04:13:36.414Z,615.00
2023-07-03T04:14:36.387Z,605.00
2023-07-03T04:15:36.376Z,594.00
2023-07-03T04:16:36.398Z,587.00
2023-07-03T04:17:36.371Z,577.00
2023-07-03T04:18:36.342Z,570.00
2023-07-03T04:19:36.362Z,559.00
2023-07-03T04:20:36.328Z,554.00
2023-07-03T04:21:36.364Z,546.00
2023-07-03T04:22:36.326Z,540.00
2023-07-03T04:23:36.314Z,535.00
2023-07-03T04:24:36.313Z,528.00
2023-07-03T04:25:36.319Z,525.00
2023-07-03T04:26:36.277Z,515.00
2023-07-03T04:27:36.292Z,511.00
2023-07-03T04:28:36.328Z,503.00
2023-07-03T04:29:36.264Z,500.00
2023-07-03T04:30:36.247Z,500.00
2023-07-03T04:31:36.266Z,501.00
2023-07-03T04:32:38.266Z,500.00
2023-07-03T04:33:36.273Z,500.00
2023-07-03T04:34:36.321Z,502.00
2023-07-03T04:35:36.330Z,501.00
2023-07-03T04:36:36.410Z,501.00
2023-07-03T04:37:36.435Z,502.00
2023-07-03T04:38:36.432Z,502.00
2023-07-03T04:39:36.442Z,503.00
2023-07-03T04:40:36.499Z,504.00
2023-07-03T04:41:36.545Z,502.00
2023-07-03T04:42:36.574Z,504.00
2023-07-03T04:43:36.644Z,504.00
2023-07-03T04:44:36.686Z,503.00
2023-07-03T04:45:36.713Z,505.00
2023-07-03T04:46:36.750Z,504.00
2023-07-03T04:47:36.791Z,506.00
2023-07-03T04:48:36.799Z,506.00
2023-07-03T04:49:36.845Z,507.00
2023-07-03T04:50:36.887Z,505.00
2023-07-03T04:51:36.882Z,506.00
2023-07-03T04:52:36.883Z,505.00
2023-07-03T04:53:36.958Z,507.00
2023-07-03T04:54:36.927Z,507.00
2023-07-03T04:55:36.980Z,504.00
2023-07-03T04:56:36.997Z,505.00
2023-07-03T04:57:37.074Z,507.00
2023-07-03T04:58:37.061Z,508.00
2023-07-03T04:59:37.113Z,510.00
2023-07-03T05:00:37.165Z,509.00
2023-07-03T05:01:37.187Z,509.00
2023-07-03T05:02:37.265Z,511.00
2023-07-03T05:03:37.241Z,513.00
2023-07-03T05:04:37.355Z,510.00
2023-07-03T05:05:37.301Z,513.00
2023-07-03T05:06:37.321Z,513.00
2023-07-03T05:07:37.328Z,511.00
2023-07-03T05:08:37.378Z,513.00
2023-07-03T05:09:37.418Z,511.00
2023-07-03T05:10:37.444Z,510.00
2023-07-03T05:11:37.501Z,512.00
2023-07-03T05:12:37.605Z,510.00
2023-07-03T05:13:37.548Z,511.00
2023-07-03T05:14:37.555Z,511.00
2023-07-03T05:15:37.732Z,512.00
2023-07-03T05:16:37.629Z,511.00
2023-07-03T05:17:37.708Z,513.00
2023-07-03T05:18:37.731Z,511.00
2023-07-03T05:19:37.714Z,513.00
2023-07-03T05:20:37.794Z,512.00
2023-07-03T05:21:37.800Z,514.00
2023-07-03T05:22:37.836Z,511.00
2023-07-03T05:23:37.979Z,517.00
2023-07-03T05:24:37.925Z,515.00
2023-07-03T05:25:38.010Z,514.00
2023-07-03T05:26:38.019Z,516.00
2023-07-03T05:27:38.018Z,514.00
2023-07-03T05:28:38.036Z,514.00
2023-07-03T05:29:38.106Z,516.00
2023-07-03T05:30:38.172Z,516.00
2023-07-03T05:31:38.257Z,513.00
2023-07-03T05:32:38.262Z,511.00
2023-07-03T05:33:38.520Z,510.00
2023-07-03T05:34:38.929Z,504.00
2023-07-03T05:35:48.466Z,500.00
2023-07-03T05:36:39.423Z,500.00
2023-07-03T05:37:38.493Z,498.00
2023-07-03T05:38:39.050Z,501.00
2023-07-03T05:39:38.398Z,501.00
2023-07-03T05:40:39.214Z,500.00
2023-07-03T05:41:38.310Z,501.00
2023-07-03T05:42:38.321Z,507.00
2023-07-03T05:43:38.303Z,504.00
2023-07-03T05:44:38.308Z,500.00
2023-07-03T05:45:38.277Z,504.00
2023-07-03T05:46:38.276Z,507.00
2023-07-03T05:47:38.318Z,502.00
2023-07-03T05:48:38.231Z,510.00
2023-07-03T05:49:38.277Z,514.00
2023-07-03T05:50:38.274Z,521.00
2023-07-03T05:51:38.240Z,521.00
2023-07-03T05:52:38.283Z,519.00
2023-07-03T05:53:38.411Z,519.00
2023-07-03T05:54:38.361Z,518.00
2023-07-03T05:55:38.304Z,520.00
2023-07-03T05:56:38.284Z,522.00
2023-07-03T05:57:38.322Z,525.00
2023-07-03T05:58:38.412Z,529.00
2023-07-03T05:59:38.407Z,533.00
2023-07-03T06:00:39.042Z,539.00
2023-07-03T06:01:38.673Z,547.00
2023-07-03T06:02:38.676Z,553.00
2023-07-03T06:03:38.670Z,555.00
2023-07-03T06:04:38.707Z,562.00
2023-07-03T06:05:38.762Z,567.00
2023-07-03T06:06:38.791Z,573.00
2023-07-03T06:07:38.794Z,578.00
2023-07-03T06:08:38.835Z,584.00
2023-07-03T06:09:38.897Z,586.00
2023-07-03T06:10:38.956Z,591.00
2023-07-03T06:11:39.014Z,599.00
2023-07-03T06:12:39.041Z,599.00
2023-07-03T06:13:39.099Z,606.00
2023-07-03T06:14:39.090Z,609.00
2023-07-03T06:15:39.153Z,612.00
2023-07-03T06:16:39.180Z,615.00
2023-07-03T06:17:39.207Z,620.00
2023-07-03T06:18:39.272Z,619.00
2023-07-03T06:19:39.289Z,628.00
2023-07-03T06:20:39.308Z,632.00
2023-07-03T06:21:39.323Z,636.00
2023-07-03T06:22:39.333Z,637.00
2023-07-03T06:23:39.392Z,638.00
2023-07-03T06:24:39.490Z,645.00
2023-07-03T06:25:39.432Z,650.00
2023-07-03T06:26:39.521Z,653.00
2023-07-03T06:27:39.516Z,657.00
2023-07-03T06:28:39.562Z,660.00
2023-07-03T06:29:39.613Z,662.00
2023-07-03T06:30:39.627Z,661.00
2023-07-03T06:31:39.715Z,665.00
2023-07-03T06:32:39.702Z,665.00
2023-07-03T06:33:39.741Z,678.00
2023-07-03T06:34:39.709Z,665.00
2023-07-03T06:35:39.734Z,681.00
2023-07-03T06:36:40.096Z,687.00
2023-07-03T06:37:39.789Z,686.00
2023-07-03T06:38:40.036Z,700.00
2023-07-03T06:39:39.973Z,697.00
2023-07-03T06:40:39.844Z,707.00
2023-07-03T06:41:39.858Z,704.00
2023-07-03T06:42:40.268Z,715.00
2023-07-03T06:43:39.902Z,730.00
2023-07-03T06:44:39.953Z,709.00
2023-07-03T06:45:39.907Z,719.00
2023-07-03T06:46:40.016Z,721.00
2023-07-03T06:47:40.109Z,720.00
2023-07-03T06:48:40.003Z,719.00
2023-07-03T06:49:40.085Z,723.00
2023-07-03T06:50:40.044Z,723.00
2023-07-03T06:51:40.096Z,667.00
2023-07-03T06:52:40.101Z,640.00
2023-07-03T06:53:40.175Z,626.00
2023-07-03T06:54:40.176Z,638.00
2023-07-03T06:55:40.304Z,638.00
2023-07-03T06:56:40.597Z,633.00
2023-07-03T06:57:40.345Z,635.00
2023-07-03T06:58:40.360Z,638.00
2023-07-03T06:59:43.023Z,637.00
2023-07-03T07:00:40.383Z,635.00
2023-07-03T07:01:40.408Z,645.00
2023-07-03T07:02:40.373Z,648.00
2023-07-03T07:03:40.441Z,653.00
2023-07-03T07:04:40.377Z,654.00
2023-07-03T07:05:40.516Z,650.00
2023-07-03T07:06:40.588Z,650.00
2023-07-03T07:07:40.378Z,650.00
2023-07-03T07:08:40.308Z,646.00
2023-07-03T07:09:40.335Z,646.00
2023-07-03T07:10:40.328Z,649.00
2023-07-03T07:11:40.696Z,645.00
2023-07-03T07:12:40.309Z,649.00
2023-07-03T07:13:40.317Z,645.00
2023-07-03T07:14:40.268Z,646.00
2023-07-03T07:15:40.276Z,649.00
2023-07-03T07:16:40.245Z,648.00
2023-07-03T07:17:51.056Z,645.00
2023-07-03T07:18:41.311Z,646.00
2023-07-03T07:19:40.216Z,647.00
2023-07-03T07:20:40.256Z,646.00
2023-07-03T07:21:40.243Z,647.00
2023-07-03T07:22:40.228Z,643.00
2023-07-03T07:23:40.179Z,650.00
2023-07-03T07:24:40.188Z,646.00
2023-07-03T07:25:40.188Z,644.00
2023-07-03T07:26:40.154Z,644.00
2023-07-03T07:27:40.366Z,632.00
2023-07-03T07:28:40.161Z,634.00
2023-07-03T07:29:40.180Z,639.00
2023-07-03T07:30:40.236Z,638.00
2023-07-03T07:31:42.264Z,631.00
2023-07-03T07:32:40.222Z,628.00
2023-07-03T07:33:40.203Z,616.00
2023-07-03T07:34:40.191Z,615.00
2023-07-03T07:35:40.199Z,602.00
2023-07-03T07:36:40.206Z,603.00
2023-07-03T07:37:40.247Z,603.00
2023-07-03T07:38:40.756Z,581.00
2023-07-03T07:39:40.204Z,567.00
2023-07-03T07:40:40.219Z,544.00
2023-07-03T07:41:40.228Z,532.00
2023-07-03T07:42:40.414Z,511.00
2023-07-03T07:43:40.310Z,498.00
2023-07-03T07:44:40.247Z,500.00
2023-07-03T07:45:40.222Z,500.00
2023-07-03T07:46:40.285Z,501.00
2023-07-03T07:47:40.304Z,500.00
2023-07-03T07:48:40.282Z,513.00
2023-07-03T07:49:40.287Z,518.00
2023-07-03T07:50:40.317Z,501.00
2023-07-03T07:51:40.330Z,505.00
2023-07-03T07:52:40.630Z,508.00
2023-07-03T07:53:40.378Z,506.00
2023-07-03T07:54:40.696Z,502.00
2023-07-03T07:55:40.761Z,500.00
2023-07-03T07:56:40.434Z,508.00
2023-07-03T07:57:40.522Z,507.00
2023-07-03T07:58:40.542Z,510.00
2023-07-03T07:59:40.628Z,504.00
2023-07-03T08:00:40.533Z,503.00
2023-07-03T08:01:40.785Z,501.00
2023-07-03T08:02:40.814Z,502.00
2023-07-03T08:03:40.619Z,503.00
2023-07-03T08:04:40.832Z,500.00
2023-07-03T08:05:40.601Z,512.00
2023-07-03T08:06:40.705Z,503.00
2023-07-03T08:07:40.680Z,503.00
2023-07-03T08:08:40.785Z,505.00
2023-07-03T08:09:40.716Z,502.00
2023-07-03T08:10:41.036Z,504.00
2023-07-03T08:11:41.012Z,502.00
2023-07-03T08:12:43.144Z,514.00
2023-07-03T08:13:40.975Z,516.00
2023-07-03T08:14:41.003Z,502.00
2023-07-03T08:15:41.137Z,506.00
2023-07-03T08:16:41.270Z,506.00
2023-07-03T08:17:41.240Z,513.00
2023-07-03T08:18:41.609Z,516.00
2023-07-03T08:19:41.556Z,513.00
2023-07-03T08:20:41.384Z,533.00
2023-07-03T08:21:41.735Z,535.00
2023-07-03T08:22:41.546Z,524.00
2023-07-03T08:23:41.534Z,533.00
2023-07-03T08:24:41.604Z,533.00
2023-07-03T08:25:41.790Z,543.00
2023-07-03T08:26:41.712Z,541.00
2023-07-03T08:27:41.903Z,548.00
2023-07-03T08:28:42.954Z,532.00
2023-07-03T08:29:41.994Z,534.00
2023-07-03T08:30:41.850Z,534.00
2023-07-03T08:31:42.380Z,543.00
2023-07-03T08:32:42.111Z,551.00
2023-07-03T08:33:42.136Z,545.00
2023-07-03T08:37:42.005Z,505.00
2023-07-03T08:38:42.130Z,491.00
2023-07-03T08:39:41.954Z,487.00
2023-07-03T08:40:41.981Z,468.00
2023-07-03T08:41:41.964Z,458.00
2023-07-03T08:42:41.971Z,503.00
2023-07-03T08:43:41.988Z,508.00
2023-07-03T08:44:41.912Z,498.00
2023-07-03T08:45:41.967Z,514.00
2023-07-03T08:46:42.192Z,503.00
2023-07-03T08:47:42.019Z,516.00
2023-07-03T08:48:42.015Z,495.00
2023-07-03T08:49:41.865Z,492.00
2023-07-03T08:50:41.930Z,505.00
2023-07-03T08:51:41.947Z,500.00
2023-07-03T08:52:41.892Z,506.00
2023-07-03T08:53:41.893Z,501.00
2023-07-03T08:54:42.018Z,505.00
2023-07-03T08:55:41.875Z,506.00
2023-07-03T08:56:41.874Z,500.00
2023-07-03T08:57:41.893Z,501.00
2023-07-03T08:58:41.855Z,504.00
2023-07-03T08:59:41.847Z,500.00
2023-07-03T09:00:41.838Z,506.00
2023-07-03T09:01:41.927Z,518.00
2023-07-03T09:02:41.982Z,528.00
2023-07-03T09:03:42.094Z,527.00
2023-07-03T09:04:42.130Z,540.00
2023-07-03T09:05:41.807Z,535.00
2023-07-03T09:06:41.805Z,532.00
2023-07-03T09:07:41.839Z,499.00
2023-07-03T09:08:41.808Z,512.00
2023-07-03T09:09:41.856Z,494.00
2023-07-03T09:10:41.756Z,501.00
2023-07-03T09:11:43.114Z,501.00
2023-07-03T09:12:42.592Z,509.00
2023-07-03T09:13:42.494Z,504.00
2023-07-03T09:14:42.064Z,500.00
2023-07-03T09:15:42.114Z,494.00
2023-07-03T09:16:42.137Z,506.00
2023-07-03T09:17:42.222Z,495.00
2023-07-03T09:18:42.305Z,502.00
2023-07-03T09:19:42.368Z,514.00
2023-07-03T09:20:42.262Z,533.00
2023-07-03T09:21:42.300Z,508.00
2023-07-03T09:22:42.466Z,515.00
2023-07-03T09:23:42.487Z,508.00
2023-07-03T09:24:42.370Z,511.00
2023-07-03T09:25:42.416Z,524.00
2023-07-03T09:26:42.469Z,549.00
2023-07-03T09:27:42.697Z,566.00
2023-07-03T09:28:42.655Z,573.00
2023-07-03T09:29:42.673Z,557.00
2023-07-03T09:30:42.691Z,560.00
2023-07-03T09:31:42.800Z,551.00
2023-07-03T09:32:42.711Z,500.00
2023-07-03T09:33:42.745Z,504.00
2023-07-03T09:34:42.793Z,490.00
2023-07-03T09:36:43.118Z,510.00
2023-07-03T09:37:42.882Z,515.00
2023-07-03T09:38:42.923Z,496.00
2023-07-03T09:39:42.961Z,505.00
2023-07-03T09:40:42.989Z,500.00
2023-07-03T09:41:43.010Z,494.00
2023-07-03T09:42:43.020Z,494.00
2023-07-03T09:43:43.081Z,499.00
2023-07-03T09:44:43.148Z,503.00
2023-07-03T09:45:44.568Z,509.00
2023-07-03T09:46:43.272Z,546.00
2023-07-03T09:47:43.536Z,535.00
2023-07-03T09:48:43.214Z,547.00
2023-07-03T09:49:43.368Z,572.00
2023-07-03T09:50:50.868Z,591.00
2023-07-03T09:51:44.453Z,591.00
2023-07-03T09:52:47.238Z,587.00
2023-07-03T09:53:44.247Z,569.00
2023-07-03T09:54:43.194Z,542.00
2023-07-03T09:55:43.241Z,515.00
2023-07-03T09:56:43.211Z,507.00
2023-07-03T09:57:43.231Z,488.00
2023-07-03T09:58:43.332Z,501.00
2023-07-03T09:59:43.160Z,511.00
2023-07-03T10:00:44.073Z,500.00
2023-07-03T10:03:43.240Z,498.00
2023-07-03T10:06:43.228Z,475.00
2023-07-03T10:07:43.475Z,466.00
2023-07-03T10:08:44.009Z,477.00
2023-07-03T10:11:43.285Z,462.00
2023-07-03T10:12:43.139Z,473.00
2023-07-03T10:13:44.063Z,468.00
2023-07-03T10:14:43.780Z,445.00
2023-07-03T10:15:43.068Z,433.00
2023-07-03T10:16:43.112Z,472.00
2023-07-03T10:17:43.245Z,500.00
2023-07-03T10:18:43.048Z,505.00
2023-07-03T10:19:43.048Z,512.00
2023-07-03T10:20:43.075Z,525.00
2023-07-03T10:21:43.684Z,522.00
2023-07-03T10:22:43.174Z,555.00
2023-07-03T10:23:43.386Z,564.00
2023-07-03T10:24:43.031Z,573.00
2023-07-03T10:25:43.013Z,574.00
2023-07-03T10:26:42.993Z,593.00
2023-07-03T10:27:42.991Z,589.00
2023-07-03T10:28:42.983Z,588.00
2023-07-03T10:29:43.014Z,603.00
2023-07-03T10:30:42.925Z,605.00
2023-07-03T10:31:46.083Z,610.00
2023-07-03T10:32:42.948Z,613.00
2023-07-03T10:33:42.936Z,623.00
2023-07-03T10:34:42.958Z,622.00
2023-07-03T10:35:42.933Z,619.00
2023-07-03T10:36:42.979Z,617.00
2023-07-03T10:37:42.918Z,605.00
2023-07-03T10:38:42.919Z,605.00
2023-07-03T10:39:43.047Z,609.00
2023-07-03T10:40:42.879Z,604.00
2023-07-03T10:41:42.910Z,604.00
2023-07-03T10:42:42.918Z,597.00
2023-07-03T10:43:42.876Z,601.00
2023-07-03T10:44:42.870Z,595.00
2023-07-03T10:45:42.906Z,593.00
2023-07-03T10:46:43.586Z,595.00
2023-07-03T10:47:42.868Z,595.00
2023-07-03T10:48:42.801Z,593.00
2023-07-03T10:49:42.840Z,591.00
2023-07-03T10:50:42.795Z,589.00
2023-07-03T10:51:42.807Z,586.00
2023-07-03T10:52:42.812Z,581.00
2023-07-03T10:53:42.776Z,583.00
2023-07-03T10:54:42.799Z,581.00
2023-07-03T10:55:42.821Z,569.00
2023-07-03T10:56:42.746Z,572.00
2023-07-03T10:57:42.737Z,577.00
2023-07-03T10:58:42.776Z,576.00
2023-07-03T10:59:42.765Z,601.00
2023-07-03T11:00:42.764Z,628.00
2023-07-03T11:01:42.758Z,644.00
2023-07-03T11:02:42.817Z,653.00
2023-07-03T11:03:43.835Z,664.00
2023-07-03T11:04:42.791Z,704.00
2023-07-03T11:05:42.697Z,746.00
2023-07-03T11:06:42.708Z,847.00
2023-07-03T11:07:42.702Z,921.00
2023-07-03T11:08:42.682Z,1048.00
2023-07-03T11:09:42.697Z,1088.00
2023-07-03T11:10:42.657Z,1148.00
2023-07-03T11:11:42.840Z,1206.00
2023-07-03T11:12:42.637Z,1232.00
2023-07-03T11:13:42.719Z,1262.00
2023-07-03T11:14:42.678Z,1331.00
2023-07-03T11:15:42.656Z,1371.00
2023-07-03T11:16:42.736Z,1422.00
2023-07-03T11:22:42.640Z,1471.00
2023-07-03T11:23:42.614Z,1496.00
2023-07-03T11:24:42.552Z,1554.00
2023-07-03T11:28:42.573Z,1476.00
2023-07-03T11:29:42.538Z,1522.00
2023-07-03T11:30:42.524Z,1607.00
2023-07-03T11:31:42.566Z,1722.00
2023-07-03T11:32:42.503Z,1894.00
2023-07-03T11:36:50.399Z,1912.00
2023-07-03T11:40:42.525Z,1934.00
2023-07-03T11:43:42.431Z,1916.00
2023-07-03T11:44:42.410Z,1942.00
2023-07-03T11:45:42.419Z,1988.00
2023-07-03T11:46:42.460Z,2067.00
2023-07-03T11:47:42.448Z,2168.00
2023-07-03T11:48:42.439Z,2193.00
2023-07-03T11:49:42.395Z,2213.00
2023-07-03T11:50:42.385Z,2225.00
2023-07-03T11:51:42.396Z,2241.00
2023-07-03T11:52:42.595Z,2221.00
2023-07-03T11:53:42.375Z,2215.00
2023-07-03T11:54:42.353Z,2218.00
2023-07-03T11:55:42.365Z,2222.00
2023-07-03T11:56:42.359Z,2205.00
2023-07-03T11:57:42.327Z,2201.00
2023-07-03T11:58:42.358Z,2218.00
2023-07-03T11:59:42.324Z,2229.00
2023-07-03T12:00:42.673Z,2237.00
2023-07-03T12:01:42.294Z,2227.00
2023-07-03T12:02:42.390Z,2240.00
2023-07-03T12:03:42.306Z,2238.00
2023-07-03T12:04:44.751Z,2254.00
2023-07-03T12:05:42.390Z,2255.00
2023-07-03T12:06:42.381Z,2258.00
2023-07-03T12:07:42.329Z,2272.00
2023-07-03T12:08:42.277Z,2285.00
2023-07-03T12:09:42.258Z,2341.00
2023-07-03T12:10:42.319Z,2349.00
2023-07-03T12:11:42.228Z,2310.00
2023-07-03T12:12:42.222Z,2343.00
2023-07-03T12:13:42.270Z,2378.00
2023-07-03T12:14:42.254Z,2376.00
2023-07-03T12:15:42.217Z,2389.00
2023-07-03T12:16:42.244Z,2384.00
2023-07-03T12:17:42.224Z,2393.00
2023-07-03T12:18:42.213Z,2395.00
2023-07-03T12:19:42.195Z,2405.00
2023-07-03T12:20:42.210Z,2403.00
2023-07-03T12:21:42.181Z,2438.00
2023-07-03T12:22:42.196Z,2452.00
2023-07-03T12:23:42.182Z,2453.00
2023-07-03T12:24:42.184Z,2487.00
2023-07-03T12:25:42.159Z,2450.00
2023-07-03T12:26:42.196Z,2464.00
2023-07-03T12:27:42.140Z,2490.00
2023-07-03T12:28:42.133Z,2499.00
2023-07-03T12:29:42.153Z,2493.00
2023-07-03T12:30:42.133Z,2497.00
2023-07-03T12:31:42.255Z,2498.00
2023-07-03T12:32:42.128Z,2480.00
2023-07-03T12:33:42.159Z,2513.00
2023-07-03T12:34:42.190Z,2499.00
2023-07-03T12:35:42.245Z,2525.00
2023-07-03T12:36:47.385Z,2519.00
2023-07-03T12:37:43.276Z,2519.00
2023-07-03T12:38:42.230Z,2521.00
2023-07-03T12:39:42.268Z,2523.00
2023-07-03T12:40:42.278Z,2546.00
2023-07-03T12:41:42.407Z,2538.00
2023-07-03T12:42:42.251Z,2555.00
2023-07-03T12:43:42.230Z,2536.00
2023-07-03T12:44:42.268Z,2549.00
2023-07-03T12:45:42.169Z,2536.00
2023-07-03T12:46:42.289Z,2555.00
2023-07-03T12:47:42.264Z,2569.00
2023-07-03T12:48:42.173Z,2562.00
2023-07-03T12:49:42.185Z,2562.00
2023-07-03T12:50:42.183Z,2553.00
2023-07-03T12:51:42.268Z,2548.00